Time;durP1;ratioP1;P1;durP2;ratioP2;P2;SDS_P1;SDS_P2;PMS_P1;PMS_P2;Temp;Humidity;BMP_temperature;BMP_pressure;BME280_temperature;BME280_humidity;BME280_pressure;Samples;Min_cycle;Max_cycle;Signal;HPM_P1;HPM_P2
2022/03/03 00:02:10;;;;;;;59.73;34.60;;;2.20;99.90;;;;;;5989441;24;20498;-76
2022/03/03 00:04:59;;;;;;;61.13;34.50;;;2.20;99.90;;;;;;5989782;24;20454;-77
2022/03/03 00:07:47;;;;;;;66.57;34.30;;;2.20;99.90;;;;;;5991535;24;20442;-76
2022/03/03 00:10:37;;;;;;;51.07;32.20;;;2.10;99.90;;;;;;5989113;24;20442;-76
2022/03/03 00:13:25;;;;;;;58.53;34.20;;;2.10;99.90;;;;;;5978757;24;20962;-76
2022/03/03 00:16:13;;;;;;;56.60;33.90;;;2.10;99.90;;;;;;5961049;24;20431;-75
2022/03/03 00:19:01;;;;;;;55.07;32.63;;;2.10;99.90;;;;;;5961813;24;20421;-77
2022/03/03 00:21:51;;;;;;;56.40;32.93;;;2.10;99.90;;;;;;5961557;24;20439;-77
2022/03/03 00:24:40;;;;;;;61.77;34.37;;;2.10;99.90;;;;;;5984748;24;20491;-76
2022/03/03 00:27:29;;;;;;;53.70;33.30;;;2.10;99.90;;;;;;5990538;24;20431;-76
2022/03/03 00:30:17;;;;;;;52.83;31.10;;;2.10;99.90;;;;;;5988805;24;20957;-76
2022/03/03 00:33:06;;;;;;;61.33;33.27;;;2.00;99.90;;;;;;5985191;24;20541;-76
2022/03/03 00:35:54;;;;;;;58.50;33.07;;;2.00;99.90;;;;;;5988459;24;20442;-76
2022/03/03 00:38:42;;;;;;;60.33;32.13;;;2.00;99.90;;;;;;5989079;24;20429;-76
2022/03/03 00:41:30;;;;;;;55.50;35.40;;;1.90;99.90;;;;;;5989036;24;20577;-77
2022/03/03 00:44:20;;;;;;;64.40;33.27;;;1.90;99.90;;;;;;5986925;24;20526;-76
2022/03/03 00:47:11;;;;;;;57.50;33.37;;;1.90;99.90;;;;;;5986055;24;20497;-76
2022/03/03 00:49:59;;;;;;;52.40;33.07;;;1.90;99.90;;;;;;5989814;24;20494;-76
2022/03/03 00:52:47;;;;;;;55.50;34.40;;;1.90;99.90;;;;;;5986567;24;20495;-76
2022/03/03 00:55:36;;;;;;;52.57;32.50;;;1.90;99.90;;;;;;5962131;24;20458;-76
2022/03/03 00:58:24;;;;;;;53.07;31.80;;;1.90;99.90;;;;;;5959658;24;20439;-76
2022/03/03 01:01:14;;;;;;;48.03;31.10;;;1.90;99.90;;;;;;5959940;24;20423;-77
2022/03/03 01:04:03;;;;;;;49.70;30.37;;;2.00;99.90;;;;;;5960608;24;20451;-76
2022/03/03 01:06:51;;;;;;;49.50;30.70;;;1.90;99.90;;;;;;5962181;24;20416;-78
2022/03/03 01:09:39;;;;;;;48.57;30.37;;;1.90;99.90;;;;;;5961601;24;20527;-77
2022/03/03 01:12:27;;;;;;;50.67;30.10;;;1.90;99.90;;;;;;5962772;24;20820;-76
2022/03/03 01:15:15;;;;;;;45.57;30.07;;;1.90;99.90;;;;;;5988121;24;20442;-75
2022/03/03 01:18:05;;;;;;;49.47;30.37;;;1.90;99.90;;;;;;5989173;24;20474;-76
2022/03/03 01:20:54;;;;;;;51.80;31.17;;;1.90;99.90;;;;;;5989450;24;20415;-76
2022/03/03 01:23:42;;;;;;;44.87;29.00;;;1.80;99.90;;;;;;5989452;23;20503;-78
2022/03/03 01:26:31;;;;;;;51.57;30.30;;;1.90;99.90;;;;;;5989201;24;20422;-76
2022/03/03 01:29:19;;;;;;;45.67;28.70;;;1.80;99.90;;;;;;5988468;24;20446;-76
2022/03/03 01:32:08;;;;;;;47.03;28.50;;;1.80;99.90;;;;;;5989277;24;20514;-77
2022/03/03 01:34:58;;;;;;;48.00;29.07;;;1.80;99.90;;;;;;5988589;24;20936;-75
2022/03/03 01:37:46;;;;;;;46.47;29.43;;;1.90;99.90;;;;;;5991574;24;20449;-76
2022/03/03 01:40:35;;;;;;;46.70;29.27;;;1.90;99.90;;;;;;5988348;24;20470;-79
2022/03/03 01:43:23;;;;;;;51.97;30.00;;;1.90;99.90;;;;;;5988915;24;20466;-76
2022/03/03 01:46:11;;;;;;;47.37;30.03;;;1.90;99.90;;;;;;5989283;24;20450;-76
2022/03/03 01:49:01;;;;;;;53.60;31.80;;;1.90;99.90;;;;;;5990000;24;20443;-76
2022/03/03 01:51:51;;;;;;;47.10;29.20;;;1.80;99.90;;;;;;5983071;24;20435;-76
2022/03/03 01:54:39;;;;;;;48.27;28.40;;;1.80;99.90;;;;;;5989101;24;20462;-76
2022/03/03 01:57:28;;;;;;;47.57;28.73;;;1.80;99.90;;;;;;5990186;24;20442;-77
2022/03/03 02:00:17;;;;;;;48.07;27.87;;;1.90;99.90;;;;;;5991178;24;20759;-76
2022/03/03 02:03:06;;;;;;;44.13;28.17;;;1.80;99.90;;;;;;5990146;24;20446;-76
2022/03/03 02:05:55;;;;;;;45.80;29.83;;;1.70;99.90;;;;;;5991297;24;20475;-76
2022/03/03 02:08:44;;;;;;;50.20;29.70;;;1.70;99.90;;;;;;5990978;24;20414;-76
2022/03/03 02:11:33;;;;;;;44.33;27.17;;;1.70;99.90;;;;;;5990944;24;20446;-76
2022/03/03 02:14:21;;;;;;;48.37;27.97;;;1.60;99.90;;;;;;5986599;24;20524;-77
2022/03/03 02:17:09;;;;;;;46.53;27.47;;;1.60;99.90;;;;;;5984748;24;20940;-76
2022/03/03 02:19:57;;;;;;;44.07;26.60;;;1.60;99.90;;;;;;5988927;24;20411;-76
2022/03/03 02:22:47;;;;;;;40.37;26.00;;;1.60;99.90;;;;;;5996379;24;20443;-78
2022/03/03 02:25:35;;;;;;;40.30;25.50;;;1.60;99.90;;;;;;5988954;24;20875;-76
2022/03/03 02:28:23;;;;;;;36.83;24.30;;;1.70;99.90;;;;;;5990526;24;20415;-76
2022/03/03 02:31:11;;;;;;;37.83;24.60;;;1.50;99.90;;;;;;5991850;24;20826;-77
2022/03/03 02:34:00;;;;;;;38.37;24.10;;;1.50;99.90;;;;;;5989006;24;21022;-78
2022/03/03 02:36:48;;;;;;;39.43;26.57;;;1.40;99.90;;;;;;5990256;24;20438;-76
2022/03/03 02:39:37;;;;;;;40.77;24.47;;;1.50;99.90;;;;;;5993717;24;20961;-76
2022/03/03 02:42:26;;;;;;;38.40;23.30;;;1.40;99.90;;;;;;5994355;24;20482;-77
2022/03/03 02:45:14;;;;;;;53.90;34.67;;;1.40;99.90;;;;;;5990918;24;20498;-76
2022/03/03 02:48:03;;;;;;;46.73;28.87;;;1.30;99.90;;;;;;5989415;24;20482;-77
2022/03/03 02:50:51;;;;;;;54.50;33.03;;;1.30;99.90;;;;;;5991165;24;20590;-77
2022/03/03 02:53:39;;;;;;;51.07;32.33;;;1.20;99.90;;;;;;5988599;24;20855;-76
2022/03/03 02:56:28;;;;;;;53.90;35.07;;;1.20;99.90;;;;;;5988579;24;20418;-76
2022/03/03 02:59:16;;;;;;;44.53;26.60;;;1.20;99.90;;;;;;5989554;24;20467;-76
2022/03/03 03:02:05;;;;;;;45.77;27.97;;;1.20;99.90;;;;;;5998077;24;20922;-78
2022/03/03 03:04:53;;;;;;;47.23;29.13;;;1.20;99.90;;;;;;5989381;24;20550;-77
2022/03/03 03:07:41;;;;;;;48.37;28.73;;;1.20;99.90;;;;;;5990480;24;20423;-77
2022/03/03 03:10:30;;;;;;;41.77;25.87;;;1.30;99.90;;;;;;5987991;24;20920;-78
2022/03/03 03:13:19;;;;;;;39.63;25.20;;;1.30;99.90;;;;;;5987422;24;20601;-78
2022/03/03 03:16:08;;;;;;;43.33;25.27;;;1.30;99.90;;;;;;5991504;24;20458;-77
2022/03/03 03:18:56;;;;;;;41.17;24.87;;;1.20;99.90;;;;;;5991563;24;20425;-76
2022/03/03 03:21:44;;;;;;;47.33;26.67;;;1.20;99.90;;;;;;5989882;24;20439;-76
2022/03/03 03:24:33;;;;;;;40.90;24.83;;;1.20;99.90;;;;;;5989948;24;21036;-77
2022/03/03 03:27:21;;;;;;;38.80;23.13;;;1.20;99.90;;;;;;5988567;24;20446;-77
2022/03/03 03:30:12;;;;;;;39.13;24.63;;;1.20;99.90;;;;;;5989812;24;20473;-77
2022/03/03 03:33:00;;;;;;;43.37;26.30;;;1.30;99.90;;;;;;5989455;24;20855;-77
2022/03/03 03:35:48;;;;;;;46.27;25.97;;;1.20;99.90;;;;;;5989979;24;20423;-77
2022/03/03 03:38:36;;;;;;;43.33;26.17;;;1.20;99.90;;;;;;5990762;24;20442;-78
2022/03/03 03:41:25;;;;;;;36.77;23.13;;;1.20;99.90;;;;;;5990130;24;20478;-77
2022/03/03 03:44:13;;;;;;;42.87;25.63;;;1.10;99.90;;;;;;5988219;24;20491;-76
2022/03/03 03:47:03;;;;;;;39.40;23.60;;;1.10;99.90;;;;;;5983643;24;20900;-77
2022/03/03 03:49:51;;;;;;;41.23;23.90;;;1.10;99.90;;;;;;5989519;24;20493;-76
2022/03/03 03:52:41;;;;;;;36.53;22.90;;;1.10;99.90;;;;;;5989023;24;20470;-76
2022/03/03 03:55:30;;;;;;;36.47;21.60;;;1.10;99.90;;;;;;5990534;24;20482;-76
2022/03/03 03:58:18;;;;;;;35.17;21.80;;;1.10;99.90;;;;;;5988511;24;20418;-77
2022/03/03 04:01:06;;;;;;;34.27;21.13;;;1.10;99.90;;;;;;5989638;24;20470;-76
2022/03/03 04:03:56;;;;;;;32.80;21.47;;;1.10;99.90;;;;;;5988608;24;20994;-78
2022/03/03 04:06:44;;;;;;;34.63;21.23;;;1.10;99.90;;;;;;5990376;24;20415;-77
2022/03/03 04:09:32;;;;;;;35.70;20.70;;;1.00;99.90;;;;;;5986637;24;20446;-76
2022/03/03 04:12:20;;;;;;;33.07;21.20;;;1.00;99.90;;;;;;5982674;24;20510;-77
2022/03/03 04:15:10;;;;;;;34.70;21.00;;;0.90;99.90;;;;;;5987042;24;20446;-76
2022/03/03 04:17:58;;;;;;;33.97;22.00;;;1.00;99.90;;;;;;5989388;24;20449;-76
2022/03/03 04:20:48;;;;;;;31.83;19.20;;;0.90;99.90;;;;;;5988472;24;20418;-76
2022/03/03 04:23:36;;;;;;;31.63;19.83;;;1.00;99.90;;;;;;5987088;24;20456;-76
2022/03/03 04:26:24;;;;;;;36.30;21.70;;;1.00;99.90;;;;;;5990195;24;20422;-76
2022/03/03 04:29:12;;;;;;;35.67;21.37;;;1.00;99.90;;;;;;5989816;24;20498;-76
2022/03/03 04:32:01;;;;;;;35.77;20.50;;;1.00;99.90;;;;;;5988777;24;20478;-77
2022/03/03 04:34:49;;;;;;;31.30;20.80;;;1.00;99.90;;;;;;5988282;24;20450;-77
2022/03/03 04:37:39;;;;;;;32.80;21.20;;;0.90;99.90;;;;;;5993012;24;20504;-77
2022/03/03 04:40:27;;;;;;;31.83;19.30;;;1.00;99.90;;;;;;5991302;24;20429;-76
2022/03/03 04:43:15;;;;;;;34.37;20.77;;;1.00;99.90;;;;;;5990880;24;20526;-77
2022/03/03 04:46:03;;;;;;;33.37;19.37;;;0.90;99.90;;;;;;5989927;24;20491;-80
2022/03/03 04:48:52;;;;;;;30.57;19.43;;;1.00;99.90;;;;;;5991094;24;20475;-76
2022/03/03 04:51:40;;;;;;;32.13;19.20;;;0.90;99.90;;;;;;5988730;24;20457;-76
2022/03/03 04:54:29;;;;;;;31.20;19.50;;;0.90;99.90;;;;;;5987649;24;20833;-76
2022/03/03 04:57:18;;;;;;;31.50;19.70;;;0.90;99.90;;;;;;5989962;24;20479;-76
2022/03/03 05:00:09;;;;;;;32.90;19.30;;;0.90;99.90;;;;;;5988881;24;20446;-76
2022/03/03 05:02:57;;;;;;;37.60;21.30;;;0.90;99.90;;;;;;5989472;24;20446;-76
2022/03/03 05:05:45;;;;;;;30.30;19.80;;;0.90;99.90;;;;;;5988996;24;20795;-76
2022/03/03 05:08:33;;;;;;;33.83;19.90;;;0.90;99.90;;;;;;5988922;24;20468;-75
2022/03/03 05:11:23;;;;;;;31.87;20.07;;;0.80;99.90;;;;;;5988646;24;20454;-77
2022/03/03 05:14:11;;;;;;;32.07;20.03;;;0.80;99.90;;;;;;5987187;24;20506;-76
2022/03/03 05:16:59;;;;;;;30.90;19.07;;;0.80;99.90;;;;;;5990882;24;20800;-76
2022/03/03 05:19:48;;;;;;;35.30;21.07;;;0.80;99.90;;;;;;5989564;24;20447;-76
2022/03/03 05:22:36;;;;;;;34.90;19.90;;;0.80;99.90;;;;;;5990736;24;20435;-77
2022/03/03 05:25:24;;;;;;;36.07;20.50;;;0.80;99.90;;;;;;5991232;24;20904;-80
2022/03/03 05:28:13;;;;;;;35.97;20.23;;;0.80;99.90;;;;;;5990831;24;20455;-76
2022/03/03 05:31:02;;;;;;;34.67;19.33;;;0.70;99.90;;;;;;5990610;24;20494;-77
2022/03/03 05:33:50;;;;;;;33.67;20.70;;;0.70;99.90;;;;;;5988506;24;20462;-77
2022/03/03 05:36:41;;;;;;;34.27;19.50;;;0.70;99.90;;;;;;6001913;24;20407;-78
2022/03/03 05:39:30;;;;;;;31.60;18.40;;;0.60;99.90;;;;;;5990355;24;20814;-77
2022/03/03 05:42:19;;;;;;;30.00;19.37;;;0.60;99.90;;;;;;5986220;24;20434;-77
2022/03/03 05:45:10;;;;;;;32.37;17.87;;;0.50;99.90;;;;;;5986105;24;20444;-79
2022/03/03 05:47:58;;;;;;;33.70;19.90;;;0.60;99.90;;;;;;5989089;24;20807;-76
2022/03/03 05:50:47;;;;;;;32.53;19.33;;;0.70;99.90;;;;;;5987465;24;20422;-76
2022/03/03 05:53:35;;;;;;;31.60;18.43;;;0.60;99.90;;;;;;5987473;24;20840;-76
2022/03/03 05:56:24;;;;;;;27.60;17.30;;;0.60;99.90;;;;;;5989296;24;20422;-76
2022/03/03 05:59:15;;;;;;;30.23;17.47;;;0.60;99.90;;;;;;5991154;24;20969;-76
2022/03/03 06:02:05;;;;;;;31.30;19.90;;;0.60;99.90;;;;;;5993825;24;20495;-76
2022/03/03 06:04:53;;;;;;;28.07;16.70;;;0.60;99.90;;;;;;5991514;24;20454;-75
2022/03/03 06:07:45;;;;;;;28.23;17.83;;;0.60;99.90;;;;;;5992808;24;20454;-76
2022/03/03 06:10:35;;;;;;;28.23;17.37;;;0.60;99.90;;;;;;5989747;24;20418;-76
2022/03/03 06:13:25;;;;;;;33.53;19.10;;;0.60;99.90;;;;;;5989444;24;21174;-76
2022/03/03 06:16:17;;;;;;;33.27;18.03;;;0.60;99.90;;;;;;6000052;24;20505;-77
2022/03/03 06:19:07;;;;;;;33.40;19.10;;;0.60;99.90;;;;;;5991634;24;20418;-74
2022/03/03 06:21:55;;;;;;;34.13;20.60;;;0.60;99.90;;;;;;5991605;24;20434;-75
2022/03/03 06:24:44;;;;;;;35.27;19.17;;;0.60;99.90;;;;;;5992025;23;20474;-75
2022/03/03 06:27:32;;;;;;;32.40;19.27;;;0.60;99.90;;;;;;5990943;24;20442;-76
2022/03/03 06:30:20;;;;;;;33.70;19.70;;;0.60;99.90;;;;;;5976719;24;20506;-75
2022/03/03 06:33:10;;;;;;;32.17;18.57;;;0.60;99.90;;;;;;5991894;24;20450;-76
2022/03/03 06:36:00;;;;;;;33.67;19.47;;;0.60;99.90;;;;;;5984278;24;20485;-76
2022/03/03 06:38:56;;;;;;;31.20;17.30;;;0.60;99.90;;;;;;5988503;24;20505;-76
2022/03/03 06:41:44;;;;;;;25.07;16.03;;;0.50;99.90;;;;;;5987443;24;20436;-76
2022/03/03 06:44:32;;;;;;;22.80;14.73;;;0.50;99.90;;;;;;5988880;24;20589;-77
2022/03/03 06:47:21;;;;;;;25.93;14.30;;;0.50;99.90;;;;;;5988758;24;20436;-78
2022/03/03 06:50:09;;;;;;;27.30;15.03;;;0.40;99.90;;;;;;5988007;24;20552;-77
2022/03/03 06:52:59;;;;;;;20.47;13.50;;;0.30;99.90;;;;;;5988511;24;20446;-75
2022/03/03 06:55:50;;;;;;;23.37;14.07;;;0.20;99.90;;;;;;5989582;24;20509;-76
2022/03/03 06:58:38;;;;;;;22.83;14.27;;;0.20;99.90;;;;;;5988660;24;20546;-78
2022/03/03 07:01:29;;;;;;;22.37;14.37;;;0.20;99.90;;;;;;5988057;24;20490;-77
2022/03/03 07:04:19;;;;;;;24.40;14.77;;;0.30;99.90;;;;;;5983412;24;20533;-78
2022/03/03 07:07:07;;;;;;;23.17;14.00;;;0.20;99.90;;;;;;5986819;24;20449;-75
2022/03/03 07:09:57;;;;;;;23.23;14.23;;;0.30;99.90;;;;;;5987961;24;20454;-75
2022/03/03 07:12:46;;;;;;;24.17;15.00;;;0.30;99.90;;;;;;5991088;24;20458;-76
2022/03/03 07:15:36;;;;;;;22.97;14.03;;;0.30;99.90;;;;;;5989605;24;20418;-76
2022/03/03 07:18:30;;;;;;;23.47;14.03;;;0.30;99.90;;;;;;5998295;24;20483;-77
2022/03/03 07:21:30;;;;;;;25.20;13.90;;;0.30;99.90;;;;;;5990536;24;20418;-76
2022/03/03 07:24:23;;;;;;;25.73;13.70;;;0.40;99.90;;;;;;5989239;24;20454;-77
2022/03/03 07:27:19;;;;;;;22.50;13.07;;;0.40;99.90;;;;;;5991505;24;20422;-76
2022/03/03 07:30:12;;;;;;;19.00;11.77;;;0.40;99.90;;;;;;5991675;24;20427;-76
2022/03/03 07:33:06;;;;;;;20.03;12.50;;;0.40;99.90;;;;;;5992233;24;20465;-77
2022/03/03 07:35:57;;;;;;;17.33;11.43;;;0.50;99.90;;;;;;5989128;24;20422;-75
2022/03/03 07:38:56;;;;;;;20.70;12.30;;;0.40;99.90;;;;;;5991434;24;20511;-75
2022/03/03 07:41:44;;;;;;;18.00;11.27;;;0.50;99.90;;;;;;5990032;24;20463;-77
2022/03/03 07:44:35;;;;;;;17.30;10.87;;;0.50;99.90;;;;;;5986078;24;20462;-78
2022/03/03 07:47:24;;;;;;;21.90;12.40;;;0.60;99.90;;;;;;5998318;24;20418;-75
2022/03/03 07:50:12;;;;;;;18.53;11.40;;;0.60;99.90;;;;;;5987221;24;20470;-75
2022/03/03 07:53:06;;;;;;;20.10;12.00;;;0.60;99.90;;;;;;5984583;24;21012;-74
2022/03/03 07:56:00;;;;;;;19.13;12.23;;;0.60;99.90;;;;;;5991158;23;20434;-75
2022/03/03 07:58:51;;;;;;;20.97;12.63;;;0.70;99.90;;;;;;6000217;24;20426;-74
2022/03/03 08:01:41;;;;;;;18.33;11.17;;;0.70;99.90;;;;;;5986503;24;20414;-74
2022/03/03 08:04:32;;;;;;;21.17;11.40;;;0.80;99.90;;;;;;5988306;24;20454;-74
2022/03/03 08:07:23;;;;;;;17.77;10.60;;;0.80;99.90;;;;;;5989277;24;20419;-74
2022/03/03 08:10:13;;;;;;;17.33;11.30;;;0.80;99.90;;;;;;5987508;24;20442;-74
2022/03/03 08:13:03;;;;;;;21.27;11.57;;;0.90;99.90;;;;;;5987134;24;20483;-75
2022/03/03 08:15:51;;;;;;;18.27;11.47;;;0.90;99.90;;;;;;5990356;24;20459;-76
2022/03/03 08:18:41;;;;;;;20.83;12.60;;;0.90;99.90;;;;;;5988987;24;20418;-76
2022/03/03 08:21:31;;;;;;;20.50;11.57;;;1.00;99.90;;;;;;5986410;24;20438;-76
2022/03/03 08:24:20;;;;;;;18.93;11.37;;;1.00;99.90;;;;;;5987133;24;20530;-76
2022/03/03 08:27:08;;;;;;;20.53;10.93;;;1.10;99.90;;;;;;5997314;24;20418;-77
2022/03/03 08:29:58;;;;;;;15.73;10.30;;;1.10;99.90;;;;;;5997936;24;20807;-75
2022/03/03 08:32:56;;;;;;;15.30;10.63;;;1.20;99.90;;;;;;5987150;24;20720;-76
2022/03/03 08:35:53;;;;;;;18.37;10.83;;;1.20;99.90;;;;;;5989419;24;20930;-75
2022/03/03 08:38:47;;;;;;;16.93;9.80;;;1.20;99.90;;;;;;5990396;24;20513;-75
2022/03/03 08:41:38;;;;;;;20.50;11.50;;;1.30;99.90;;;;;;5988605;24;20423;-76
2022/03/03 08:44:28;;;;;;;16.20;10.53;;;1.30;99.90;;;;;;5988524;24;20450;-77
2022/03/03 08:47:17;;;;;;;18.67;10.03;;;1.40;99.90;;;;;;5986411;24;20481;-75
2022/03/03 08:50:09;;;;;;;16.60;11.50;;;1.40;99.90;;;;;;5988411;24;20418;-77
2022/03/03 08:53:16;;;;;;;17.07;11.10;;;1.50;99.90;;;;;;5987400;24;20454;-76
2022/03/03 08:56:04;;;;;;;15.97;11.40;;;1.50;99.90;;;;;;5988069;24;20446;-76
2022/03/03 08:58:54;;;;;;;16.20;9.30;;;1.60;99.90;;;;;;5988650;24;20422;-75
2022/03/03 09:01:42;;;;;;;18.93;10.60;;;1.60;99.90;;;;;;5986339;24;20451;-75
2022/03/03 09:04:31;;;;;;;17.60;9.77;;;1.60;99.90;;;;;;5986711;24;20454;-76
2022/03/03 09:07:19;;;;;;;16.00;10.10;;;1.70;99.90;;;;;;5982202;24;20411;-75
2022/03/03 09:10:10;;;;;;;16.20;9.40;;;1.80;99.90;;;;;;5989283;24;20422;-75
2022/03/03 09:13:01;;;;;;;15.03;9.07;;;1.80;99.90;;;;;;5988265;24;20454;-76
2022/03/03 09:15:49;;;;;;;12.43;8.07;;;1.90;99.90;;;;;;5989703;24;20411;-75
2022/03/03 09:18:37;;;;;;;11.60;7.70;;;1.90;99.90;;;;;;5989673;24;20762;-75
2022/03/03 09:21:25;;;;;;;12.80;8.27;;;1.90;99.90;;;;;;5989978;24;20541;-75
2022/03/03 09:24:14;;;;;;;10.97;7.40;;;1.90;99.90;;;;;;5988114;24;20470;-76
2022/03/03 09:27:04;;;;;;;12.27;7.60;;;1.90;99.90;;;;;;5989716;24;20418;-78
2022/03/03 09:29:53;;;;;;;11.87;8.00;;;1.90;99.90;;;;;;5990411;24;20475;-75
2022/03/03 09:32:41;;;;;;;12.00;7.87;;;1.90;99.90;;;;;;5988775;24;20482;-75
2022/03/03 09:35:29;;;;;;;13.00;7.47;;;1.90;99.90;;;;;;5990035;24;20433;-77
2022/03/03 09:38:18;;;;;;;13.43;8.33;;;1.90;99.90;;;;;;5989006;24;20430;-75
2022/03/03 09:41:06;;;;;;;12.47;8.60;;;1.90;99.90;;;;;;5989331;24;20496;-75
2022/03/03 09:43:57;;;;;;;10.53;8.40;;;2.00;99.90;;;;;;5986742;24;20450;-75
2022/03/03 09:46:46;;;;;;;11.83;7.93;;;2.00;99.90;;;;;;5988592;24;20449;-75
2022/03/03 09:49:34;;;;;;;13.43;8.90;;;2.10;99.90;;;;;;6000109;24;20839;-75
2022/03/03 09:52:23;;;;;;;13.70;9.40;;;2.20;99.90;;;;;;5988731;24;20514;-75
2022/03/03 09:55:11;;;;;;;11.07;8.77;;;2.20;99.90;;;;;;5989094;24;20497;-75
2022/03/03 09:57:59;;;;;;;11.43;8.67;;;2.30;99.90;;;;;;5991205;24;20442;-76
2022/03/03 10:00:52;;;;;;;14.13;9.77;;;2.20;99.90;;;;;;5989522;24;20437;-76
2022/03/03 10:03:41;;;;;;;13.70;9.67;;;2.20;99.90;;;;;;5988668;24;20692;-75
2022/03/03 10:06:39;;;;;;;12.87;8.83;;;2.30;99.90;;;;;;5988703;24;20419;-75
2022/03/03 10:09:27;;;;;;;15.40;9.70;;;2.30;99.90;;;;;;5990467;24;20451;-75
2022/03/03 10:12:16;;;;;;;15.70;10.13;;;2.40;99.90;;;;;;5988836;24;20443;-75
2022/03/03 10:15:05;;;;;;;13.83;10.13;;;2.40;99.90;;;;;;5986374;24;20458;-76
2022/03/03 10:17:58;;;;;;;13.30;8.73;;;2.50;99.90;;;;;;5987640;24;20849;-74
2022/03/03 10:20:49;;;;;;;12.47;8.17;;;2.50;99.90;;;;;;5989128;24;20492;-76
2022/03/03 10:23:38;;;;;;;12.23;9.00;;;2.50;99.90;;;;;;5989063;24;20450;-82
2022/03/03 10:26:35;;;;;;;11.03;8.57;;;2.60;99.90;;;;;;5987985;24;20811;-75
2022/03/03 10:29:24;;;;;;;12.93;8.97;;;2.70;99.90;;;;;;5988775;24;20452;-75
2022/03/03 10:32:23;;;;;;;11.00;8.63;;;2.70;99.90;;;;;;5987355;24;20999;-75
2022/03/03 10:35:18;;;;;;;11.87;8.47;;;2.80;99.90;;;;;;5986476;24;20462;-75
2022/03/03 10:38:06;;;;;;;10.43;7.40;;;2.80;99.90;;;;;;5988697;24;20414;-75
2022/03/03 10:40:54;;;;;;;11.37;7.97;;;2.80;99.90;;;;;;5988397;24;20982;-78
2022/03/03 10:43:48;;;;;;;12.70;7.67;;;2.90;99.90;;;;;;5988656;24;20442;-76
2022/03/03 10:46:39;;;;;;;10.07;6.97;;;2.90;99.90;;;;;;5989141;24;20425;-76
2022/03/03 10:49:27;;;;;;;8.97;6.87;;;2.90;99.90;;;;;;5999881;24;20732;-75
2022/03/03 10:52:18;;;;;;;11.77;7.83;;;2.90;99.90;;;;;;5990165;24;20450;-76
2022/03/03 10:55:12;;;;;;;9.10;7.10;;;2.90;99.90;;;;;;5989535;24;20462;-76
2022/03/03 10:58:01;;;;;;;9.83;6.80;;;2.90;99.90;;;;;;5990481;24;20419;-76
2022/03/03 11:00:50;;;;;;;10.03;7.30;;;3.00;99.90;;;;;;5988544;24;20453;-75
2022/03/03 11:03:41;;;;;;;9.50;7.20;;;3.10;99.90;;;;;;5988088;24;20462;-77
2022/03/03 11:06:33;;;;;;;10.13;7.17;;;3.10;99.90;;;;;;5988523;24;20438;-75
2022/03/03 11:09:23;;;;;;;9.40;7.90;;;3.10;99.90;;;;;;5991914;24;21080;-75
2022/03/03 11:12:12;;;;;;;9.07;7.03;;;3.10;99.90;;;;;;5999059;24;20470;-77
2022/03/03 11:15:00;;;;;;;8.27;6.87;;;3.10;99.90;;;;;;5988398;24;20462;-75
2022/03/03 11:17:49;;;;;;;9.20;7.10;;;3.20;99.90;;;;;;5988048;24;20443;-76
2022/03/03 11:20:38;;;;;;;9.47;6.80;;;3.30;99.90;;;;;;5989211;24;20800;-74
2022/03/03 11:23:40;;;;;;;7.60;6.20;;;3.30;99.90;;;;;;5994488;24;20514;-77
2022/03/03 11:26:34;;;;;;;7.83;6.00;;;3.40;99.90;;;;;;5996077;24;20422;-78
2022/03/03 11:29:22;;;;;;;10.00;6.23;;;3.60;99.90;;;;;;5983992;24;20455;-75
2022/03/03 11:32:15;;;;;;;8.00;6.00;;;3.70;99.90;;;;;;5987482;24;20511;-76
2022/03/03 11:35:07;;;;;;;8.67;6.97;;;3.80;99.90;;;;;;5983853;24;21020;-76
2022/03/03 11:37:56;;;;;;;8.60;6.63;;;3.80;99.90;;;;;;5987122;24;20426;-75
2022/03/03 11:41:04;;;;;;;10.60;6.80;;;3.80;99.90;;;;;;5990053;24;20446;-76
2022/03/03 11:44:01;;;;;;;8.13;6.60;;;4.00;99.90;;;;;;5986810;24;20447;-75
2022/03/03 11:46:50;;;;;;;8.77;7.40;;;4.30;99.90;;;;;;5985230;24;20426;-76
2022/03/03 11:50:06;;;;;;;8.47;6.80;;;4.20;99.90;;;;;;5985691;24;20422;-75
2022/03/03 11:53:18;;;;;;;8.83;6.57;;;4.00;99.90;;;;;;5987401;24;20466;-75
2022/03/03 11:56:07;;;;;;;9.43;7.17;;;4.00;99.90;;;;;;5989356;24;20458;-76
2022/03/03 11:59:11;;;;;;;7.47;6.00;;;4.00;99.90;;;;;;5988904;24;20796;-77
2022/03/03 12:02:01;;;;;;;11.50;7.90;;;4.10;99.90;;;;;;5985840;24;20473;-75
2022/03/03 12:05:46;;;;;;;6.80;5.97;;;4.20;99.90;;;;;;5986581;24;20971;-77
2022/03/03 12:08:37;;;;;;;9.37;6.80;;;4.40;99.90;;;;;;5988081;24;20427;-76
2022/03/03 12:11:36;;;;;;;7.03;5.50;;;4.70;99.90;;;;;;5979087;24;20506;-76
2022/03/03 12:14:35;;;;;;;6.40;5.50;;;4.90;99.90;;;;;;5983042;24;20458;-74
2022/03/03 12:17:44;;;;;;;5.93;5.10;;;5.20;99.90;;;;;;5984506;24;20447;-76
2022/03/03 12:20:37;;;;;;;7.00;6.07;;;5.60;99.90;;;;;;5984650;24;20826;-75
2022/03/03 12:23:46;;;;;;;6.50;5.20;;;5.70;99.90;;;;;;5984311;24;20533;-78
2022/03/03 12:26:59;;;;;;;7.13;5.37;;;5.90;99.90;;;;;;5982715;24;20426;-75
2022/03/03 12:29:57;;;;;;;7.00;6.00;;;5.90;99.90;;;;;;5988099;24;20482;-76
2022/03/03 12:33:06;;;;;;;6.70;5.50;;;6.00;99.90;;;;;;5977482;24;21013;-78
2022/03/03 12:36:00;;;;;;;7.63;6.20;;;6.60;99.90;;;;;;5980974;24;20510;-75
2022/03/03 12:38:49;;;;;;;7.40;5.90;;;8.00;99.90;;;;;;5973169;24;20527;-76
2022/03/03 12:41:40;;;;;;;7.17;6.33;;;9.40;99.90;;;;;;5969690;24;21144;-77
2022/03/03 12:44:30;;;;;;;6.97;5.70;;;10.90;99.90;;;;;;5969597;24;20932;-76
2022/03/03 12:47:30;;;;;;;7.10;6.40;;;14.40;99.90;;;;;;5970912;24;20961;-76
2022/03/03 12:50:21;;;;;;;6.80;6.10;;;17.80;99.90;;;;;;5972404;24;20497;-76
2022/03/03 12:53:11;;;;;;;6.87;6.37;;;19.90;99.90;;;;;;5971236;24;20797;-76
2022/03/03 12:56:01;;;;;;;7.30;6.80;;;21.40;98.20;;;;;;5971138;24;20985;-76
2022/03/03 12:58:53;;;;;;;6.87;6.33;;;22.60;91.50;;;;;;5970539;24;20426;-76
2022/03/03 13:01:45;;;;;;;7.20;6.60;;;23.40;89.30;;;;;;5970913;24;20607;-77
2022/03/03 13:04:33;;;;;;;6.50;6.00;;;23.80;81.20;;;;;;5969534;24;20446;-76
2022/03/03 13:07:39;;;;;;;7.20;6.70;;;23.40;77.80;;;;;;5969019;24;20470;-76
2022/03/03 13:10:27;;;;;;;7.20;6.63;;;21.70;77.80;;;;;;5969891;24;20434;-76
2022/03/03 13:13:17;;;;;;;6.60;6.10;;;22.10;81.30;;;;;;5968917;24;20461;-75
2022/03/03 13:16:13;;;;;;;6.90;6.20;;;22.70;75.40;;;;;;5972309;24;20478;-75
2022/03/03 13:19:03;;;;;;;7.13;6.53;;;23.40;76.40;;;;;;5971773;24;20461;-75
2022/03/03 13:21:52;;;;;;;6.83;6.33;;;23.70;78.40;;;;;;5973216;24;20509;-75
2022/03/03 13:24:40;;;;;;;6.43;5.97;;;24.10;73.80;;;;;;5975746;24;20546;-75
2022/03/03 13:27:28;;;;;;;6.20;5.70;;;24.20;70.60;;;;;;5974766;24;20906;-77
2022/03/03 13:30:18;;;;;;;6.80;6.37;;;24.60;72.20;;;;;;5970824;24;20964;-74
2022/03/03 13:33:06;;;;;;;6.30;5.90;;;24.50;70.90;;;;;;5970544;24;20859;-76
2022/03/03 13:35:55;;;;;;;8.00;7.37;;;24.00;72.40;;;;;;5968844;24;20441;-75
2022/03/03 13:38:43;;;;;;;7.27;6.77;;;23.90;71.40;;;;;;5967860;24;20887;-74
2022/03/03 13:41:34;;;;;;;7.20;6.70;;;23.60;72.90;;;;;;5968737;24;20446;-75
2022/03/03 13:44:23;;;;;;;7.80;7.10;;;23.10;72.70;;;;;;5969101;24;21030;-75
2022/03/03 13:47:14;;;;;;;7.40;6.80;;;22.90;77.10;;;;;;5970279;24;20454;-75
2022/03/03 13:50:02;;;;;;;7.10;6.50;;;22.50;76.50;;;;;;5969154;24;21048;-74
2022/03/03 13:52:50;;;;;;;6.40;5.90;;;21.50;78.90;;;;;;5968768;24;20468;-75
2022/03/03 13:55:38;;;;;;;6.77;6.27;;;20.40;84.50;;;;;;5969518;24;20570;-75
2022/03/03 13:58:27;;;;;;;7.33;6.73;;;19.30;88.30;;;;;;5969867;24;20428;-74
2022/03/03 14:01:27;;;;;;;6.13;5.63;;;19.20;92.30;;;;;;5967783;24;20410;-74
2022/03/03 14:04:17;;;;;;;6.57;5.83;;;18.50;92.20;;;;;;5965916;24;21081;-74
2022/03/03 14:07:05;;;;;;;6.80;6.20;;;17.00;93.30;;;;;;5969049;24;20598;-75
2022/03/03 14:09:58;;;;;;;6.20;5.60;;;15.90;97.90;;;;;;5967636;24;20905;-77
2022/03/03 14:13:00;;;;;;;5.93;5.43;;;14.90;99.90;;;;;;5963735;24;20449;-75
2022/03/03 14:15:50;;;;;;;5.73;5.23;;;14.20;99.90;;;;;;5967162;24;20449;-75
2022/03/03 14:18:39;;;;;;;6.20;5.60;;;13.60;99.90;;;;;;5967228;24;20880;-74
2022/03/03 14:21:29;;;;;;;5.90;5.40;;;13.20;99.90;;;;;;5979853;24;20768;-74
2022/03/03 14:24:19;;;;;;;5.67;5.23;;;12.90;99.90;;;;;;5964225;24;20577;-77
2022/03/03 14:27:19;;;;;;;6.30;5.70;;;12.60;99.90;;;;;;5963391;24;20452;-75
2022/03/03 14:30:08;;;;;;;5.50;5.00;;;12.50;99.90;;;;;;5965261;24;20502;-75
2022/03/03 14:32:57;;;;;;;5.70;5.17;;;12.20;99.90;;;;;;5982866;23;20520;-68
2022/03/03 14:35:46;;;;;;;5.70;4.97;;;12.00;99.90;;;;;;6010377;23;20939;-68
2022/03/03 14:38:37;;;;;;;5.20;4.80;;;11.80;99.90;;;;;;6004212;23;20463;-68
2022/03/03 14:41:26;;;;;;;5.63;5.00;;;11.60;99.90;;;;;;6001515;23;20795;-68